• Join FlightAware (Why Join?)
  • Login
  • US Flag 
06:40AM EDT


 

Airport Tracker/Info


-or-


 

Live Flight TrackerFlight Track Log ✈ AVN50 ✈ 11-Jun-2014 ✈ NVVV / VLI - NZAA / AKL

Flight Track Log - Related Links

Times and Time Zones

All times are in EDT time to prevent confusion due to time zone crossing. See the AVN50 flight status page for this flight to view local times or setup timezone preferences in your user account.

Time Position Orientation Groundspeed Altitude Reporting Facility
EDT Latitude Longitude Course Direction KTS MPH feet Rate Location/Type
04:11PM -18.3685 168.5109 165° South  Level Estimated
04:12PM -18.4800 168.5428 165° South  Level Estimated
04:13PM -18.5916 168.5749 165° South  Level Estimated
04:14PM -18.7031 168.6070 165° South  Level Estimated
04:15PM -18.8146 168.6391 165° South  Level Estimated
04:16PM -18.9261 168.6712 165° South  Level Estimated
04:17PM -19.0375 168.7034 165° South  Level Estimated
04:18PM -19.1490 168.7357 165° South  Level Estimated
04:19PM -19.2605 168.7680 165° South  Level Estimated
04:20PM -19.3720 168.8003 165° South  Level Estimated
04:21PM -19.4834 168.8327 165° South  Level Estimated
04:22PM -19.5949 168.8651 165° South  Level Estimated
04:23PM -19.7063 168.8975 165° South  Level Estimated
04:24PM -19.8178 168.9301 165° South  Level Estimated
04:25PM -19.9292 168.9626 165° South  Level Estimated
04:26PM -20.0407 168.9952 165° South  Level Estimated
04:27PM -20.1521 169.0279 165° South  Level Estimated
04:28PM -20.2635 169.0605 165° South  Level Estimated
04:29PM -20.3749 169.0933 165° South  Level Estimated
04:30PM -20.4863 169.1261 165° South  Level Estimated
04:31PM -20.5978 169.1589 165° South  Level Estimated
04:32PM -20.7092 169.1918 165° South  Level Estimated
04:33PM -20.8211 169.2224 166° South  Level FlightAware Approximate
04:34PM -20.9331 169.2530 166° South  Level FlightAware Approximate
04:35PM -21.0451 169.2837 166° South  Level FlightAware Approximate
04:36PM -21.1570 169.3144 166° South  Level FlightAware Approximate
04:37PM -21.2690 169.3452 166° South  Level FlightAware Approximate
04:38PM -21.3810 169.3760 166° South  Level FlightAware Approximate
04:39PM -21.4929 169.4068 166° South  Level FlightAware Approximate
04:40PM -21.6048 169.4377 166° South  Level FlightAware Approximate
04:41PM -21.7168 169.4687 166° South  Level FlightAware Approximate
04:42PM -21.8287 169.4997 166° South  Level FlightAware Approximate
04:43PM -21.9406 169.5307 166° South  Level FlightAware Approximate
04:44PM -22.0525 169.5618 166° South  Level FlightAware Approximate
04:45PM -22.1644 169.5930 166° South  Level FlightAware Approximate
04:46PM -22.2763 169.6242 166° South  Level FlightAware Approximate
04:47PM -22.3882 169.6554 166° South  Level FlightAware Approximate
04:48PM -22.5001 169.6867 166° South  Level FlightAware Approximate
04:49PM -22.6120 169.7181 165° South  Level FlightAware Approximate
04:50PM -22.7239 169.7495 165° South  Level FlightAware Approximate
04:51PM -22.8358 169.7809 165° South  Level FlightAware Approximate
04:52PM -22.9476 169.8124 165° South  Level FlightAware Approximate
04:53PM -23.0595 169.8440 165° South  Level FlightAware Approximate
04:54PM -23.1714 169.8756 165° South  Level FlightAware Approximate
04:55PM -23.2832 169.9073 165° South  Level FlightAware Approximate
04:56PM -23.3951 169.9390 165° South  Level FlightAware Approximate
04:57PM -23.5069 169.9707 165° South  Level FlightAware Approximate
04:58PM -23.6187 170.0025 165° South  Level FlightAware Approximate
04:59PM -23.7305 170.0344 165° South  Level FlightAware Approximate
05:00PM -23.8424 170.0663 165° South  Level FlightAware Approximate
05:01PM -23.9542 170.0983 165° South  Level FlightAware Approximate
05:02PM -24.0660 170.1304 165° South  Level FlightAware Approximate
05:03PM -24.1778 170.1625 165° South  Level FlightAware Approximate
05:04PM -24.2896 170.1946 165° South  Level FlightAware Approximate
05:05PM -24.4013 170.2268 165° South  Level FlightAware Approximate
05:06PM -24.5131 170.2591 165° South  Level FlightAware Approximate
05:07PM -24.6249 170.2914 165° South  Level FlightAware Approximate
05:08PM -24.7367 170.3238 165° South  Level FlightAware Approximate
05:09PM -24.8484 170.3562 165° South  Level FlightAware Approximate
05:10PM -24.9602 170.3887 165° South  Level FlightAware Approximate
05:10PM -25.7333 170.6167 165° South 494 568  Level New Zealand
05:11PM -25.0719 170.4213 165° South  Level FlightAware Approximate
05:12PM -25.1836 170.4539 165° South  Level FlightAware Approximate
05:12PM -26.0000 170.7000 164° South 494 568  Level New Zealand
05:14PM -26.2667 170.7833 164° South 494 568 660 Level New Zealand
05:16PM -26.5333 170.8667 164° South 494 568 660 Level New Zealand
05:18PM -26.8000 170.9500 164° South 494 568 660 Level New Zealand
05:20PM -27.0667 171.0333 164° South 494 568 720 Level New Zealand
05:22PM -27.3333 171.1167 164° South 494 568 720 Level New Zealand
05:24PM -27.6000 171.2167 162° South 494 568 780 Level New Zealand
05:26PM -27.8500 171.3000 164° South 494 568 780 Level New Zealand
05:28PM -28.1167 171.3833 165° South 494 568 840 Level New Zealand
05:30PM -28.3833 171.4667 165° South 494 568 900 Level New Zealand
05:32PM -28.6500 171.5500 165° South 494 568 960 Level New Zealand
05:34PM -28.9167 171.6500 162° South 494 568 960 Level New Zealand
05:36PM -29.1833 171.7333 165° South 494 568 1,020 Level New Zealand
05:38PM -29.4500 171.8167 165° South 494 568 1,080 Level New Zealand
05:40PM -29.7167 171.9167 162° South 510 587 1,140 Level New Zealand
05:42PM -29.9667 172.0000 164° South 491 565 1,260 Level New Zealand
05:44PM -30.2333 172.0833 165° South 491 565 1,320 Level New Zealand
05:46PM -30.5000 172.1833 162° South 491 565 1,440 Level New Zealand
05:48PM -30.7500 172.2667 164° South 491 565 1,560 Level New Zealand
05:50PM -31.0167 172.3667 162° South 491 565 1,680 Level New Zealand
05:52PM -31.2833 172.4500 165° South 491 565 1,860 Level New Zealand
05:54PM -31.5333 172.5500 161° South 491 565 2,100 Level New Zealand
05:56PM -31.8000 172.6333 165° South 491 565 2,340 Level New Zealand
05:58PM -32.0667 172.7333 162° South 491 565 2,640 Level New Zealand
06:00PM -32.3333 172.8167 165° South 491 565 3,060 Level New Zealand
06:02PM -32.5833 172.9167 161° South 491 565 3,660 Level New Zealand
06:04PM -32.8500 173.0167 163° South 491 565 4,500 Level New Zealand
06:04PM -32.9500 173.0500 164° South 436 502 5,880 Level New Zealand
06:05PM -33.1000 173.1000 164° South 497 572 6,480 Level New Zealand
06:06PM -33.2333 173.1333 168° South 500 575 7,800 Level New Zealand
06:07PM -33.3667 173.2000 157° South 500 575 9,840 Level New Zealand
06:08PM -33.5000 173.2500 163° South 503 579 13,260 Level New Zealand
06:09PM -33.6333 173.3000 163° South 505 581 20,340 Level New Zealand
06:10PM -33.7552 173.3441 163° South 486 559 39,000 13,500 Climbing FlightAware ADS-B (NZJL)
06:11PM -33.9000 173.3833 163° South 467 537  Descending New Zealand
06:12PM -34.0085 173.4052 174° South 456 525 39,000 21,060 Climbing FlightAware ADS-B (NZJL)
06:13PM -34.1358 173.4205 174° South 449 517 39,000  Level FlightAware ADS-B (NZJL)
06:14PM -34.2833 173.4333 174° South 457 526  Descending New Zealand
06:14PM -34.2943 173.4395 174° South 456 525 39,000 31,200 Climbing FlightAware ADS-B (NZJL)
06:15PM -34.4167 173.4500 174° South 457 526  Descending New Zealand
06:16PM -34.4476 173.4579 174° South 456 525 39,000 26,280 Climbing FlightAware ADS-B (NZJL)
06:16PM -34.5500 173.4667 174° South 456 525  Descending New Zealand
06:17PM -34.6045 173.4769 175° South 455 524 39,000 26,880 Climbing FlightAware ADS-B (NZJL)
06:17PM -34.6667 173.4833 175° South 454 522  Descending New Zealand
06:18PM -34.7291 173.4916 174° South 454 522 39,000 33,420 Climbing FlightAware ADS-B (NZJL)
06:18PM -34.8000 173.5000 174° South 454 522  Descending New Zealand
06:19PM -34.7977 173.5000 174° South 455 524 39,000 48,720 Climbing FlightAware ADS-B (NZNE)
06:19PM -34.9041 173.5129 174° South 459 528 39,000  Level FlightAware ADS-B (NZNE)
06:20PM -34.9822 173.5225 174° South 452 520 39,000  Level FlightAware ADS-B (NZJL)
06:21PM -35.0667 173.5333 174° South 461 531  Descending New Zealand
06:21PM -35.0768 173.5342 174° South 460 529 39,000 50,820 Climbing FlightAware ADS-B (NZNE)
06:21PM -35.1629 173.5447 174° South 461 531 39,000 -240 Level FlightAware ADS-B (NZNE)
06:22PM -35.2387 173.5541 174° South 451 519 38,700 -1,440 Descending FlightAware ADS-B (NZJL)
06:23PM -35.3167 173.5667 174° South 455 524 -2,160 Descending New Zealand
06:23PM -35.3342 173.5656 174° South 455 524 37,100 48,660 Climbing FlightAware ADS-B (NZNE)
06:23PM -35.4162 173.5755 174° South 452 520 35,700 -1,980 Descending FlightAware ADS-B (NZNE)
06:24PM -35.5008 173.5857 174° South 438 504 34,500 -1,740 Descending FlightAware ADS-B (NZNE)
06:25PM -35.5667 173.6000 174° South 437 503 -1,680 Descending New Zealand
06:25PM -35.5799 173.5956 174° South 430 495 33,400 45,960 Climbing FlightAware ADS-B (NZNE)
06:25PM -35.6578 173.6057 174° South 421 484 32,200 -1,800 Descending FlightAware ADS-B (NZNE)
06:26PM -35.7314 173.6148 174° South 410 472 31,100 -1,980 Descending FlightAware ADS-B (NZNE)
06:27PM -35.8167 173.6167 174° South 405 466 -2,220 Descending New Zealand
06:27PM -35.8447 173.6290 174° South 395 455 28,900 28,500 Climbing FlightAware ADS-B (NZNE)
06:28PM -35.9150 173.6376 174° South 392 451 27,600 -1,980 Descending FlightAware ADS-B (NZNE)
06:28PM -35.9167 173.6333 174° South 392 451 -1,920 Descending New Zealand
06:28PM -35.9719 173.6446 174° South 391 450 26,600 20,100 Climbing FlightAware ADS-B (NZJL)
06:29PM -36.0333 173.6500 174° South 388 447 -1,020 Descending New Zealand
06:29PM -36.0580 173.6551 174° South 391 450 25,800 26,220 Climbing FlightAware ADS-B (NZNE)
06:30PM -36.1302 173.6647 173° South 382 440 24,500 -1,860 Descending FlightAware ADS-B (NZNE)
06:30PM -36.1837 173.6718 174° South 370 426 23,600 -1,800 Descending FlightAware ADS-B (NZJL)
06:31PM -36.2353 173.6782 174° South 372 428 22,700 -1,800 Descending FlightAware ADS-B (NZNE)
06:31PM -36.2872 173.6842 175° South 369 425 21,800 -1,800 Descending FlightAware ADS-B (NZJL)
06:32PM -36.3375 173.6904 174° South 364 419 20,900 -1,800 Descending FlightAware ADS-B (NZNE)
06:32PM -36.3862 173.6997 162° South 359 413 20,000 -1,800 Descending FlightAware ADS-B (NZJL)
06:33PM -36.4270 173.7342 135° Southeast 347 399 19,100 -1,800 Descending FlightAware ADS-B (NZNE)
06:33PM -36.4628 173.7777 135° Southeast 344 396 18,200 -1,740 Descending FlightAware ADS-B (NZJL)
06:34PM -36.5000 173.8333 135° Southeast 342 394 -1,800 Descending New Zealand
06:34PM -36.5175 173.8445 135° Southeast 339 390 16,800 18,420 Climbing FlightAware ADS-B (NZNE)
06:35PM -36.5624 173.8990 135° Southeast 334 384 15,700 -1,680 Descending FlightAware ADS-B (NZNE)
06:35PM -36.6062 173.9526 135° Southeast 328 377 14,600 -1,680 Descending FlightAware ADS-B (NZNE)
06:36PM -36.6333 174.0000 135° Southeast 327 376 -1,680 Descending New Zealand
06:36PM -36.6486 174.0044 135° Southeast 324 373 13,500 15,060 Climbing FlightAware ADS-B (NZNE)
06:37PM -36.6933 174.0592 135° Southeast 319 367 12,300 -1,740 Descending FlightAware ADS-B (NZNE)
06:37PM -36.7350 174.1105 135° Southeast 315 362 11,200 -1,620 Descending FlightAware ADS-B (NZNE)
06:38PM -36.7667 174.1500 135° Southeast 315 362 -1,620 Descending New Zealand
06:38PM -36.7754 174.1599 135° Southeast 315 362 10,200 24,000 Climbing FlightAware ADS-B (NZNE)
06:38PM -36.7953 174.1845 135° Southeast 316 364 9,600 -1,680 Descending FlightAware ADS-B (NZNE)
06:39PM -36.8157 174.2097 135° Southeast 311 358 9,100 -1,140 Descending FlightAware ADS-B (NZNE)
06:39PM -36.8345 174.2326 135° Southeast 297 342 8,900 -780 Descending FlightAware ADS-B (NZNE)
06:39PM -36.8545 174.2574 135° Southeast 289 333 8,600 -1,200 Descending FlightAware ADS-B (NZNE)
06:40PM -36.8734 174.2809 135° Southeast 287 330 8,100 -1,320 Descending FlightAware ADS-B (NZNE)
06:40PM -36.8931 174.3053 135° Southeast 287 330 7,700 -1,320 Descending FlightAware ADS-B (NZNE)
06:40PM -36.9129 174.3298 135° Southeast 286 329 7,200 -1,440 Descending FlightAware ADS-B (NZNE)
06:41PM -36.9324 174.3538 135° Southeast 285 328 6,700 -1,380 Descending FlightAware ADS-B (NZNE)
06:41PM -36.9501 174.3757 135° Southeast 284 327 6,300 -1,380 Descending FlightAware ADS-B (NZNE)
06:41PM -36.9697 174.3999 134° Southeast 283 326 5,800 -1,440 Descending FlightAware ADS-B (NZNE)
06:42PM -36.9748 174.4063 135° Southeast 283 326 5,400 -840 Descending FlightAware ADS-B (NZNE)
06:43PM -37.0478 174.4964 134° Southeast 236 272 4,600 -420 Descending FlightAware ADS-B (NZJL)
06:43PM -37.0564 174.5070 135° Southeast 232 267 4,800 -900 Climbing FlightAware ADS-B (NZNE)
06:44PM -37.0748 174.5569 74° East 178 205 3,700 -1,260 Descending FlightAware ADS-B (NZJL)
06:45PM -37.0600 174.6123 71° East 164 189 2,800 -900 Descending FlightAware ADS-B (NZJL)
06:46PM -37.0450 174.6669 71° East 148 170 1,900 -660 Descending FlightAware ADS-B (NZJL)
06:46PM -37.0564 174.5070 83° East 187 215 1,800 -780 Descending FlightAware ADS-B (NZNE)
06:47PM -37.0333 174.7167 83° East 132 152 -1,140 Descending New Zealand
06:47PM -37.0266 174.7334 75° East 133 153 800 180 Climbing FlightAware ADS-B (NZJL)
06:48PM -37.0167 174.7667 75° East 136 157 -840 Descending New Zealand
06:48PM -37.0173 174.7674 74° East 136 157 200 6,000 Climbing FlightAware ADS-B (NZJL)
06:51PM -37.0081 174.7917 160° South  Level Estimated
06:52PM -37.0081 174.7917 North  Level Estimated
06:53PM -37.0081 174.7917 160° South  Level Estimated
06:54PM -37.0081 174.7917 North  Level Estimated
06:55PM -37.0081 174.7917 160° South  Level Estimated
06:56PM -37.0081 174.7917 North  Level Estimated